Blackwood, United Kingdom
Current Conditions -  °F | °C
As of 11:20 AM on Saturday 20 Dec 2014 (Local Time) from EGFF Reporting Station
Overcast Overcast  
Wind Chill: 42°   Ceiling: 2900
Heat Index: 48°   Visibility: 6mi
Dew Point: 41°   Wind: 17mph
Humidity: 76%   Direction: 280°W
Pressure: 30.36"   Gusts: NA
Location:  51.67°N, 3.21°W
Report Text: EGFF 201120Z AUTO 28015KT 9999 OVC029 09/05 Q1028
Loading
Personal Weather Stations






























Interactive Weather Map New forecast layout! Learn more

10-Day Weather Forecast

Advertisements
Track Severe Weather on mobile